createdAt,value
2017-11-26T00:00:49.887Z,20.30
2017-11-26T00:03:17.525Z,21.47
2017-11-26T00:05:45.120Z,23.03
2017-11-26T00:08:12.710Z,21.90
2017-11-26T00:10:40.343Z,21.43
2017-11-26T00:13:07.955Z,22.93
2017-11-26T00:15:35.545Z,21.87
2017-11-26T00:18:03.174Z,23.37
2017-11-26T00:20:30.768Z,22.90
2017-11-26T00:22:58.694Z,22.70
2017-11-26T00:25:26.346Z,22.97
2017-11-26T00:27:54.023Z,23.70
2017-11-26T00:30:21.606Z,24.03
2017-11-26T00:32:49.249Z,22.80
2017-11-26T00:35:16.844Z,23.00
2017-11-26T00:37:44.734Z,24.40
2017-11-26T00:40:12.353Z,25.03
2017-11-26T00:42:39.945Z,24.00
2017-11-26T00:45:07.569Z,23.70
2017-11-26T00:47:35.205Z,23.80
2017-11-26T00:50:02.789Z,24.73
2017-11-26T00:52:30.650Z,22.60
2017-11-26T00:54:58.274Z,24.73
2017-11-26T00:57:25.882Z,24.03
2017-11-26T00:59:53.494Z,24.60
2017-11-26T01:02:21.129Z,23.30
2017-11-26T01:04:48.718Z,23.43
2017-11-26T01:07:16.632Z,23.30
2017-11-26T01:09:44.263Z,22.60
2017-11-26T01:12:11.837Z,23.90
2017-11-26T01:14:39.418Z,23.57
2017-11-26T01:17:07.044Z,24.47
2017-11-26T01:19:34.629Z,24.40
2017-11-26T01:22:02.217Z,25.50
2017-11-26T01:24:30.169Z,23.63
2017-11-26T01:26:57.767Z,24.20
2017-11-26T01:29:25.711Z,23.60
2017-11-26T01:31:53.351Z,24.60
2017-11-26T01:34:20.954Z,26.17
2017-11-26T01:36:48.544Z,24.10
2017-11-26T01:39:16.179Z,24.73
2017-11-26T01:41:43.781Z,24.27
2017-11-26T01:44:11.479Z,25.60
2017-11-26T01:46:39.446Z,26.53
2017-11-26T01:49:07.027Z,24.53
2017-11-26T01:51:34.619Z,24.60
2017-11-26T01:54:02.269Z,24.70
2017-11-26T01:56:29.859Z,24.93
2017-11-26T01:58:57.458Z,23.87
2017-11-26T02:01:25.109Z,24.70
2017-11-26T02:03:58.733Z,25.00
2017-11-26T02:06:26.350Z,23.17
2017-11-26T02:08:53.944Z,24.50
2017-11-26T02:11:21.533Z,24.30
2017-11-26T02:13:49.169Z,24.27
2017-11-26T02:16:16.754Z,25.40
2017-11-26T02:18:44.337Z,26.77
2017-11-26T02:21:12.257Z,23.30
2017-11-26T02:23:39.886Z,22.77
2017-11-26T02:26:07.505Z,24.90
2017-11-26T02:28:35.135Z,25.40
2017-11-26T02:31:02.718Z,24.13
2017-11-26T02:33:42.221Z,23.17
2017-11-26T02:36:19.264Z,24.43
2017-11-26T02:38:46.905Z,25.87
2017-11-26T02:41:14.501Z,25.80
2017-11-26T02:43:42.095Z,24.97
2017-11-26T02:46:09.734Z,24.60
2017-11-26T02:48:37.653Z,25.00
2017-11-26T02:51:05.517Z,26.77
2017-11-26T02:53:33.144Z,26.53
2017-11-26T02:56:00.745Z,24.43
2017-11-26T02:58:28.606Z,25.83
2017-11-26T03:00:56.229Z,26.03
2017-11-26T03:03:24.137Z,25.53
2017-11-26T03:05:51.764Z,27.70
2017-11-26T03:08:19.403Z,27.90
2017-11-26T03:10:46.986Z,26.17
2017-11-26T03:13:14.581Z,27.53
2017-11-26T03:15:42.210Z,26.47
2017-11-26T03:18:09.844Z,24.70
2017-11-26T03:20:37.427Z,22.70
2017-11-26T03:23:05.066Z,24.10
2017-11-26T03:25:32.657Z,26.30
2017-11-26T03:28:00.246Z,26.40
2017-11-26T03:30:27.869Z,26.57
2017-11-26T03:32:55.465Z,24.90
2017-11-26T03:35:23.077Z,26.30
2017-11-26T03:37:50.998Z,25.80
2017-11-26T03:40:18.579Z,26.60
2017-11-26T03:42:46.164Z,23.43
2017-11-26T03:45:13.801Z,25.40
2017-11-26T03:47:41.394Z,25.40
2017-11-26T03:50:09.006Z,25.50
2017-11-26T03:52:36.888Z,26.00
2017-11-26T03:55:04.477Z,26.53
2017-11-26T03:57:32.066Z,25.97
2017-11-26T03:59:59.717Z,25.73
2017-11-26T04:02:27.309Z,24.23
2017-11-26T04:04:55.411Z,27.27
2017-11-26T04:07:23.047Z,25.20
2017-11-26T04:09:50.636Z,25.93
2017-11-26T04:12:18.216Z,24.87
2017-11-26T04:14:46.165Z,25.10
2017-11-26T04:17:14.030Z,24.37
2017-11-26T04:19:41.608Z,26.47
2017-11-26T04:22:09.245Z,24.90
2017-11-26T04:24:36.841Z,27.87
2017-11-26T04:27:04.450Z,23.87
2017-11-26T04:29:32.090Z,25.33
2017-11-26T04:31:59.692Z,25.50
2017-11-26T04:34:27.281Z,24.37
2017-11-26T04:36:54.910Z,22.73
2017-11-26T04:39:22.491Z,24.57
2017-11-26T04:41:50.113Z,25.03
2017-11-26T04:44:17.770Z,23.20
2017-11-26T04:46:45.360Z,23.17
2017-11-26T04:49:12.958Z,23.80
2017-11-26T04:51:40.580Z,20.63
2017-11-26T04:54:08.466Z,22.67
2017-11-26T04:56:36.066Z,21.87
2017-11-26T04:59:03.684Z,21.60
2017-11-26T05:01:31.534Z,21.97
2017-11-26T05:03:59.424Z,21.57
2017-11-26T05:06:27.058Z,21.07
2017-11-26T05:08:54.698Z,21.47
2017-11-26T05:11:22.285Z,19.83
2017-11-26T05:13:49.917Z,23.50
2017-11-26T05:16:17.842Z,22.70
2017-11-26T05:18:45.445Z,20.77
2017-11-26T05:21:13.374Z,22.40
2017-11-26T05:23:40.961Z,20.67
2017-11-26T05:26:08.543Z,21.80
2017-11-26T05:28:36.468Z,20.87
2017-11-26T05:31:04.053Z,22.70
2017-11-26T05:33:31.646Z,21.00
2017-11-26T05:35:59.559Z,22.00
2017-11-26T05:38:27.159Z,21.20
2017-11-26T05:40:54.768Z,21.57
2017-11-26T05:43:22.402Z,21.47
2017-11-26T05:45:50.012Z,21.60
2017-11-26T05:48:17.594Z,20.43
2017-11-26T05:50:45.214Z,20.83
2017-11-26T05:53:12.806Z,21.67
2017-11-26T05:55:40.659Z,22.80
2017-11-26T05:58:08.283Z,22.03
2017-11-26T06:00:35.906Z,22.80
2017-11-26T06:03:03.488Z,24.07
2017-11-26T06:05:31.110Z,23.60
2017-11-26T06:07:58.721Z,21.67
2017-11-26T06:10:26.322Z,22.97
2017-11-26T06:12:54.197Z,23.10
2017-11-26T06:15:21.793Z,24.30
2017-11-26T06:17:49.408Z,23.60
2017-11-26T06:20:17.034Z,24.33
2017-11-26T06:22:45.967Z,22.73
2017-11-26T06:25:13.604Z,24.00
2017-11-26T06:27:41.249Z,23.77
2017-11-26T06:30:08.853Z,23.73
2017-11-26T06:32:36.452Z,24.57
2017-11-26T06:35:04.085Z,24.23
2017-11-26T06:37:31.678Z,25.00
2017-11-26T06:39:59.273Z,24.77
2017-11-26T06:42:26.912Z,24.43
2017-11-26T06:44:54.521Z,24.17
2017-11-26T06:47:22.125Z,23.20
2017-11-26T06:49:50.074Z,24.40
2017-11-26T06:52:17.670Z,22.30
2017-11-26T06:54:45.257Z,23.57
2017-11-26T06:57:12.881Z,24.80
2017-11-26T06:59:40.455Z,23.10
2017-11-26T07:02:08.401Z,22.30
2017-11-26T07:04:36.068Z,21.57
2017-11-26T07:07:04.559Z,23.90
2017-11-26T07:09:32.473Z,23.00
2017-11-26T07:12:00.595Z,23.97
2017-11-26T07:14:29.129Z,22.30
2017-11-26T07:16:57.199Z,22.97
2017-11-26T07:19:24.917Z,22.30
2017-11-26T07:21:52.505Z,22.73
2017-11-26T07:24:20.504Z,21.90
2017-11-26T07:26:48.519Z,21.87
2017-11-26T07:29:16.120Z,24.00
2017-11-26T07:31:43.728Z,20.80
2017-11-26T07:34:11.370Z,23.20
2017-11-26T07:36:38.966Z,22.10
2017-11-26T07:39:06.717Z,22.97
2017-11-26T07:41:34.353Z,21.77
2017-11-26T07:44:01.953Z,23.57
2017-11-26T07:46:29.804Z,21.60
2017-11-26T07:48:57.445Z,22.03
2017-11-26T07:51:25.038Z,21.73
2017-11-26T07:53:54.084Z,20.90
2017-11-26T07:56:22.139Z,20.03
2017-11-26T07:58:49.934Z,20.20
2017-11-26T08:01:17.828Z,20.70
2017-11-26T08:03:45.792Z,20.73
2017-11-26T08:06:13.377Z,19.80
2017-11-26T08:08:41.331Z,21.17
2017-11-26T08:11:09.306Z,19.00
2017-11-26T08:13:36.889Z,21.37
2017-11-26T08:16:04.469Z,19.97
2017-11-26T08:18:32.089Z,20.57
2017-11-26T08:20:59.678Z,19.13
2017-11-26T08:23:27.510Z,20.40
2017-11-26T08:25:55.141Z,21.10
2017-11-26T08:28:23.073Z,19.63
2017-11-26T08:30:50.652Z,19.97
2017-11-26T08:33:18.286Z,20.40
2017-11-26T08:35:45.890Z,21.33
2017-11-26T08:38:13.516Z,19.13
2017-11-26T08:40:41.246Z,20.03
2017-11-26T08:43:09.128Z,20.00
2017-11-26T08:45:36.766Z,19.07
2017-11-26T08:48:04.402Z,20.13
2017-11-26T08:50:32.013Z,20.63
2017-11-26T08:52:59.699Z,20.70
2017-11-26T08:55:27.478Z,19.10
2017-11-26T08:57:55.416Z,18.93
2017-11-26T09:00:23.040Z,18.30
2017-11-26T09:02:50.706Z,19.90
2017-11-26T09:05:18.303Z,18.47
2017-11-26T09:07:47.340Z,18.30
2017-11-26T09:10:14.996Z,17.23
2017-11-26T09:12:42.613Z,17.60
2017-11-26T09:15:10.254Z,18.13
2017-11-26T09:17:37.907Z,18.07
2017-11-26T09:20:05.492Z,16.60
2017-11-26T09:22:33.107Z,16.53
2017-11-26T09:25:00.914Z,17.50
2017-11-26T09:27:28.801Z,17.77
2017-11-26T09:29:56.416Z,16.40
2017-11-26T09:32:24.053Z,17.20
2017-11-26T09:34:51.646Z,18.27
2017-11-26T09:37:19.250Z,17.27
2017-11-26T09:39:46.892Z,15.63
2017-11-26T09:42:14.521Z,16.80
2017-11-26T09:44:42.143Z,16.90
2017-11-26T09:47:09.789Z,15.50
2017-11-26T09:49:37.533Z,16.50
2017-11-26T09:52:05.182Z,16.03
2017-11-26T09:54:32.832Z,14.97
2017-11-26T09:57:00.510Z,15.90
2017-11-26T09:59:28.190Z,16.13
2017-11-26T10:01:55.870Z,16.33
2017-11-26T10:04:23.463Z,15.70
2017-11-26T10:06:51.047Z,15.73
2017-11-26T10:09:18.708Z,16.10
2017-11-26T10:11:46.640Z,16.97
2017-11-26T10:14:14.236Z,15.30
2017-11-26T10:16:42.189Z,15.30
2017-11-26T10:19:09.819Z,15.90
2017-11-26T10:21:37.694Z,16.00
2017-11-26T10:24:05.334Z,16.17
2017-11-26T10:26:33.169Z,15.80
2017-11-26T10:29:00.783Z,15.70
2017-11-26T10:31:28.410Z,14.90
2017-11-26T10:33:56.011Z,15.10
2017-11-26T10:36:23.604Z,15.47
2017-11-26T10:38:51.475Z,14.30
2017-11-26T10:41:19.136Z,14.90
2017-11-26T10:43:46.742Z,17.20
2017-11-26T10:46:14.746Z,14.03
2017-11-26T10:48:42.422Z,14.03
2017-11-26T10:51:10.020Z,13.93
2017-11-26T10:53:37.660Z,13.47
2017-11-26T10:56:05.596Z,14.30
2017-11-26T10:58:33.189Z,15.20
2017-11-26T11:01:01.087Z,13.10
2017-11-26T11:03:28.689Z,14.60
2017-11-26T11:05:56.365Z,13.27
2017-11-26T11:08:23.994Z,14.40
2017-11-26T11:10:51.589Z,13.80
2017-11-26T11:13:19.193Z,13.93
2017-11-26T11:15:46.835Z,13.50
2017-11-26T11:18:14.969Z,13.17
2017-11-26T11:20:42.566Z,13.70
2017-11-26T11:23:10.863Z,13.40
2017-11-26T11:25:38.470Z,13.93
2017-11-26T11:28:06.063Z,14.10
2017-11-26T11:30:33.681Z,13.50
2017-11-26T11:33:01.472Z,14.00
2017-11-26T11:35:29.128Z,12.90
2017-11-26T11:37:56.796Z,13.63
2017-11-26T11:40:24.433Z,13.07
2017-11-26T11:42:52.323Z,13.50
2017-11-26T11:45:19.961Z,13.17
2017-11-26T11:47:47.558Z,13.27
2017-11-26T11:50:15.379Z,12.00
2017-11-26T11:52:43.081Z,12.73
2017-11-26T11:55:10.685Z,13.03
2017-11-26T11:57:38.458Z,12.77
2017-11-26T12:00:06.091Z,13.47
2017-11-26T12:02:33.697Z,12.57
2017-11-26T12:05:01.293Z,12.77
2017-11-26T12:07:28.943Z,12.37
2017-11-26T12:09:56.792Z,12.20
2017-11-26T12:12:24.528Z,12.73
2017-11-26T12:14:52.150Z,11.90
2017-11-26T12:17:19.763Z,12.03
2017-11-26T12:19:47.366Z,12.80
2017-11-26T12:22:15.035Z,12.30
2017-11-26T12:24:42.637Z,11.73
2017-11-26T12:27:10.236Z,12.63
2017-11-26T12:29:37.902Z,12.50
2017-11-26T12:32:05.517Z,12.37
2017-11-26T12:34:33.098Z,12.27
2017-11-26T12:37:00.831Z,13.03
2017-11-26T12:39:28.497Z,14.77
2017-11-26T12:41:56.432Z,12.60
2017-11-26T12:44:24.148Z,12.67
2017-11-26T12:46:51.855Z,13.30
2017-11-26T12:49:19.464Z,12.70
2017-11-26T12:51:47.161Z,12.27
2017-11-26T12:54:14.793Z,13.00
2017-11-26T12:56:42.696Z,13.60
2017-11-26T12:59:10.361Z,12.33
2017-11-26T13:01:39.254Z,13.07
2017-11-26T13:04:06.874Z,13.20
2017-11-26T13:06:34.551Z,12.73
2017-11-26T13:09:02.369Z,12.93
2017-11-26T13:11:30.688Z,12.20
2017-11-26T13:14:00.438Z,12.07
2017-11-26T13:16:28.042Z,12.47
2017-11-26T13:18:55.678Z,12.50
2017-11-26T13:21:24.220Z,12.03
2017-11-26T13:23:55.783Z,11.77
2017-11-26T13:26:23.817Z,11.93
2017-11-26T13:28:51.509Z,12.40
2017-11-26T13:31:19.122Z,13.13
2017-11-26T13:33:47.775Z,12.13
2017-11-26T13:36:15.413Z,11.90
2017-11-26T13:38:43.046Z,12.23
2017-11-26T13:41:10.661Z,12.30
2017-11-26T13:43:38.267Z,11.90
2017-11-26T13:46:06.175Z,12.30
2017-11-26T13:48:33.838Z,12.10
2017-11-26T13:51:01.793Z,11.20
2017-11-26T13:53:29.410Z,11.10
2017-11-26T13:55:57.139Z,11.70
2017-11-26T13:58:25.655Z,11.90
2017-11-26T14:00:53.291Z,12.37
2017-11-26T14:03:21.828Z,11.90
2017-11-26T14:05:49.822Z,12.43
2017-11-26T14:08:17.506Z,11.43
2017-11-26T14:10:45.627Z,12.10
2017-11-26T14:13:13.321Z,11.43
2017-11-26T14:15:42.117Z,12.80
2017-11-26T14:18:09.875Z,11.53
2017-11-26T14:20:39.263Z,12.47
2017-11-26T14:23:07.452Z,12.20
2017-11-26T14:25:35.152Z,11.83
2017-11-26T14:28:02.855Z,12.20
2017-11-26T14:30:30.744Z,12.10
2017-11-26T14:32:58.883Z,11.63
2017-11-26T14:35:26.557Z,12.17
2017-11-26T14:37:54.301Z,11.93
2017-11-26T14:40:22.114Z,11.90
2017-11-26T14:42:49.731Z,12.67
2017-11-26T14:45:17.818Z,11.77
2017-11-26T14:47:45.527Z,11.87
2017-11-26T14:50:13.168Z,11.63
2017-11-26T14:52:40.775Z,10.87
2017-11-26T14:55:08.474Z,11.90
2017-11-26T14:57:36.066Z,11.77
2017-11-26T15:00:04.009Z,11.67
2017-11-26T15:02:31.643Z,11.60
2017-11-26T15:04:59.243Z,12.30
2017-11-26T15:07:26.911Z,12.53
2017-11-26T15:09:54.541Z,11.10
2017-11-26T15:12:22.434Z,12.10
2017-11-26T15:14:50.041Z,11.50
2017-11-26T15:17:17.665Z,11.90
2017-11-26T15:19:45.267Z,11.83
2017-11-26T15:22:12.869Z,11.67
2017-11-26T15:24:40.497Z,11.07
2017-11-26T15:27:08.118Z,11.07
2017-11-26T15:29:35.717Z,10.90
2017-11-26T15:32:04.918Z,10.80
2017-11-26T15:34:32.601Z,11.40
2017-11-26T15:37:00.286Z,11.57
2017-11-26T15:39:27.942Z,12.63
2017-11-26T15:41:56.276Z,11.47
2017-11-26T15:44:23.896Z,11.63
2017-11-26T15:46:51.671Z,11.80
2017-11-26T15:51:51.587Z,11.07
2017-11-26T15:54:19.504Z,11.30
2017-11-26T15:56:48.983Z,10.53
2017-11-26T15:59:16.638Z,10.90
2017-11-26T16:01:44.304Z,11.13
2017-11-26T16:04:12.038Z,11.07
2017-11-26T16:06:39.705Z,11.10
2017-11-26T16:09:07.342Z,10.67
2017-11-26T16:11:34.975Z,12.20
2017-11-26T16:14:02.601Z,11.43
2017-11-26T16:16:30.258Z,11.60
2017-11-26T16:18:57.871Z,12.50
2017-11-26T16:21:25.518Z,11.87
2017-11-26T16:23:53.139Z,12.47
2017-11-26T16:26:20.840Z,12.20
2017-11-26T16:28:48.465Z,11.93
2017-11-26T16:31:16.068Z,11.73
2017-11-26T16:33:43.680Z,11.63
2017-11-26T16:36:11.341Z,12.30
2017-11-26T16:38:39.174Z,12.10
2017-11-26T16:41:06.897Z,12.40
2017-11-26T16:43:34.655Z,11.40
2017-11-26T16:46:02.269Z,11.30
2017-11-26T16:48:29.893Z,12.27
2017-11-26T16:50:57.686Z,11.97
2017-11-26T16:53:25.332Z,12.33
2017-11-26T16:55:53.870Z,11.80
2017-11-26T16:58:21.993Z,12.40
2017-11-26T17:00:49.642Z,12.27
2017-11-26T17:03:17.276Z,13.20
2017-11-26T17:05:44.939Z,12.90
2017-11-26T17:08:12.798Z,13.70
2017-11-26T17:10:40.502Z,12.30
2017-11-26T17:13:08.434Z,13.37
2017-11-26T17:15:36.044Z,13.13
2017-11-26T17:18:03.680Z,12.93
2017-11-26T17:20:31.389Z,13.07
2017-11-26T17:22:59.207Z,13.17
2017-11-26T17:25:27.637Z,13.60
2017-11-26T17:27:57.129Z,13.10
2017-11-26T17:30:24.870Z,14.00
2017-11-26T17:32:52.697Z,13.60
2017-11-26T17:35:20.347Z,13.90
2017-11-26T17:37:47.967Z,14.17
2017-11-26T17:40:17.084Z,13.00
2017-11-26T17:42:44.747Z,13.77
2017-11-26T17:45:12.597Z,14.60
2017-11-26T17:47:40.298Z,14.20
2017-11-26T17:50:07.933Z,14.10
2017-11-26T17:52:35.625Z,13.20
2017-11-26T17:55:04.106Z,13.40
2017-11-26T17:57:31.850Z,13.20
2017-11-26T17:59:59.464Z,13.63
2017-11-26T18:02:27.100Z,13.10
2017-11-26T18:04:54.855Z,13.87
2017-11-26T18:07:23.623Z,13.20
2017-11-26T18:09:51.218Z,12.90
2017-11-26T18:12:18.997Z,13.80
2017-11-26T18:14:46.684Z,12.93
2017-11-26T18:17:14.298Z,13.80
2017-11-26T18:19:41.954Z,13.90
2017-11-26T18:22:10.127Z,12.50
2017-11-26T18:24:37.735Z,12.13
2017-11-26T18:27:06.368Z,12.50
2017-11-26T18:29:34.511Z,14.10
2017-11-26T18:32:02.374Z,13.07
2017-11-26T18:34:30.212Z,12.90
2017-11-26T18:36:57.821Z,14.20
2017-11-26T18:39:25.478Z,12.40
2017-11-26T18:41:53.165Z,13.50
2017-11-26T18:44:21.038Z,12.40
2017-11-26T18:46:48.663Z,12.60
2017-11-26T18:49:16.638Z,12.77
2017-11-26T18:51:44.322Z,12.10
2017-11-26T18:54:13.590Z,12.90
2017-11-26T18:56:41.678Z,13.00
2017-11-26T18:59:09.329Z,13.13
2017-11-26T19:01:36.921Z,12.80
2017-11-26T19:04:04.559Z,12.03
2017-11-26T19:06:32.266Z,13.57
2017-11-26T19:08:59.886Z,12.20
2017-11-26T19:11:27.534Z,12.63
2017-11-26T19:13:55.455Z,12.67
2017-11-26T19:16:24.375Z,12.80
2017-11-26T19:18:53.917Z,12.77
2017-11-26T19:21:22.167Z,12.70
2017-11-26T19:23:49.789Z,13.17
2017-11-26T19:26:17.430Z,12.57
2017-11-26T19:28:45.054Z,13.40
2017-11-26T19:31:12.653Z,12.77
2017-11-26T19:33:42.002Z,13.00
2017-11-26T19:36:09.723Z,13.17
2017-11-26T19:38:38.024Z,13.67
2017-11-26T19:41:05.741Z,13.10
2017-11-26T19:43:33.353Z,12.60
2017-11-26T19:46:00.965Z,12.93
2017-11-26T19:48:28.664Z,13.00
2017-11-26T19:50:56.264Z,13.37
2017-11-26T19:53:23.845Z,13.07
2017-11-26T19:55:51.476Z,12.60
2017-11-26T19:58:22.339Z,12.50
2017-11-26T20:00:50.163Z,12.73
2017-11-26T20:03:17.818Z,12.97
2017-11-26T20:05:45.410Z,13.20
2017-11-26T20:08:13.045Z,12.43
2017-11-26T20:10:40.725Z,12.17
2017-11-26T20:13:08.343Z,12.67
2017-11-26T20:15:35.934Z,12.23
2017-11-26T20:18:03.587Z,12.93
2017-11-26T20:20:31.205Z,13.07
2017-11-26T20:22:59.096Z,13.57
2017-11-26T20:25:26.725Z,12.53
2017-11-26T20:27:54.325Z,12.97
2017-11-26T20:30:21.924Z,12.60
2017-11-26T20:32:49.560Z,12.77
2017-11-26T20:35:17.196Z,12.50
2017-11-26T20:37:44.807Z,12.70
2017-11-26T20:40:12.471Z,13.00
2017-11-26T20:42:40.085Z,12.90
2017-11-26T20:45:07.690Z,13.50
2017-11-26T20:47:35.320Z,12.73
2017-11-26T20:50:02.986Z,14.13
2017-11-26T20:52:30.590Z,13.13
2017-11-26T20:54:58.227Z,12.83
2017-11-26T20:57:25.850Z,13.03
2017-11-26T20:59:53.443Z,13.33
2017-11-26T21:02:21.121Z,13.63
2017-11-26T21:04:48.711Z,12.60
2017-11-26T21:07:16.634Z,12.07
2017-11-26T21:09:44.299Z,13.53
2017-11-26T21:12:11.954Z,13.23
2017-11-26T21:14:39.815Z,13.80
2017-11-26T21:17:07.672Z,12.93
2017-11-26T21:19:35.302Z,13.80
2017-11-26T21:22:02.905Z,13.40
2017-11-26T21:24:30.678Z,13.20
2017-11-26T21:26:58.646Z,13.87
2017-11-26T21:29:26.279Z,13.27
2017-11-26T21:31:53.921Z,12.60
2017-11-26T21:34:21.615Z,13.30
2017-11-26T21:36:49.385Z,14.10
2017-11-26T21:39:17.069Z,12.90
2017-11-26T21:41:45.241Z,12.93
2017-11-26T21:44:13.363Z,13.13
2017-11-26T21:46:41.081Z,13.80
2017-11-26T21:49:08.754Z,12.87
2017-11-26T21:51:36.574Z,13.73
2017-11-26T21:54:04.355Z,12.83
2017-11-26T21:56:32.034Z,13.30
2017-11-26T21:58:59.759Z,12.67
2017-11-26T22:01:27.531Z,13.43
2017-11-26T22:03:55.180Z,14.23
2017-11-26T22:06:23.131Z,14.43
2017-11-26T22:08:51.147Z,13.20
2017-11-26T22:11:19.783Z,14.33
2017-11-26T22:13:47.450Z,12.60
2017-11-26T22:16:15.491Z,13.43
2017-11-26T22:18:43.220Z,12.63
2017-11-26T22:21:10.831Z,12.50
2017-11-26T22:23:38.453Z,13.17
2017-11-26T22:26:06.086Z,12.20
2017-11-26T22:28:33.681Z,13.23
2017-11-26T22:31:01.315Z,12.57
2017-11-26T22:33:28.888Z,12.80
2017-11-26T22:35:56.478Z,12.90
2017-11-26T22:38:24.106Z,12.80
2017-11-26T22:40:51.704Z,13.37
2017-11-26T22:43:19.310Z,13.20
2017-11-26T22:45:46.942Z,13.57
2017-11-26T22:48:14.532Z,13.07
2017-11-26T22:50:42.266Z,12.50
2017-11-26T22:53:09.910Z,13.47
2017-11-26T22:55:37.515Z,13.73
2017-11-26T22:58:05.107Z,12.97
2017-11-26T23:00:32.741Z,12.93
2017-11-26T23:03:00.325Z,13.40
2017-11-26T23:05:27.947Z,13.07
2017-11-26T23:07:55.577Z,12.80
2017-11-26T23:10:23.186Z,13.10
2017-11-26T23:12:50.765Z,12.40
2017-11-26T23:15:18.411Z,12.90
2017-11-26T23:17:46.000Z,14.30
2017-11-26T23:20:13.605Z,13.43
2017-11-26T23:22:41.242Z,13.13
2017-11-26T23:25:08.834Z,13.00
2017-11-26T23:27:36.499Z,12.40
2017-11-26T23:30:04.585Z,13.27
2017-11-26T23:32:32.169Z,13.70
2017-11-26T23:34:59.761Z,12.63
2017-11-26T23:37:27.385Z,13.10
2017-11-26T23:39:54.974Z,12.70
2017-11-26T23:42:22.583Z,13.13
2017-11-26T23:44:50.212Z,12.97
2017-11-26T23:47:17.810Z,13.53
2017-11-26T23:49:45.391Z,13.87
2017-11-26T23:52:13.018Z,13.37
2017-11-26T23:54:40.899Z,13.43
2017-11-26T23:57:08.868Z,13.00
2017-11-26T23:59:36.490Z,12.70
